• Join FlightAware (Why Join?)
  • Login
  • US Flag 
01:18PM EST


 

Airport Tracker/Info


-or-


 

Live Flight TrackerFlight Track Log ✈ ASQ5740 ✈ 28-Jul-2013 ✈ KIAD - KDTW

Flight Track Log - Related Links

Times and Time Zones

All times are in EDT time to prevent confusion due to time zone crossing. See the ASQ5740 flight status page for this flight to view local times or setup timezone preferences in your user account.

Time Position Orientation Groundspeed Altitude Reporting Facility
EDT Latitude Longitude Course Direction KTS MPH feet Rate Location/Type
08:10AM 38.9667 -77.5333 293° West 200 230 2,500  Level Potomac TRACON
08:11AM 39.0167 -77.5667 333° Northwest 263 303 4,100 2,340 Climbing Potomac TRACON
08:12AM 39.1000 -77.6167 335° Northwest 285 328 7,000 2,460 Climbing Potomac TRACON
08:13AM 39.2944 -77.5437 344° North  Level FlightAware Approximate
08:13AM 39.1650 -77.6342 348° North 296 341 8,800  Level Washington Center
08:14AM 39.3855 -77.5779 344° North  Level FlightAware Approximate
08:14AM 39.2478 -77.6633 345° North 301 346 11,100  Level Washington Center
08:15AM 39.4592 -77.6199 288° West  Level FlightAware Approximate
08:15AM 39.3283 -77.7086 337° Northwest 301 346 13,000  Level Washington Center
08:16AM 39.4898 -77.7361 293° West  Level FlightAware Approximate
08:16AM 39.4106 -77.7700 330° Northwest 320 368 14,300  Level Washington Center
08:17AM 39.4950 -77.8317 331° Northwest 332 382 15,800 1,500 Climbing Washington Center
08:18AM 39.5578 -77.9278 310° West 347 399 17,300 1,440 Climbing Washington Center
08:20AM 39.6375 -78.1867 292° West 344 396 20,600 1,320 Climbing Cleveland Center
08:21AM 39.6692 -78.3014 290° West 344 396 21,800 900 Climbing Cleveland Center
08:22AM 39.7069 -78.4217 292° West 349 402 22,400 600 Climbing Cleveland Center
08:23AM 39.7425 -78.5475 290° West 356 410 23,100 840 Climbing Cleveland Center
08:24AM 39.7781 -78.6653 291° West 376 433 24,100 1,020 Climbing Cleveland Center
08:25AM 39.8322 -78.7961 298° West 376 433 25,200 1,020 Climbing Cleveland Center
08:26AM 39.8881 -78.9136 302° West 376 433 26,200 960 Climbing Cleveland Center
08:27AM 39.9483 -79.0342 303° West 388 447 27,200 780 Climbing Cleveland Center
08:28AM 40.0061 -79.1547 302° West 388 447 27,800 480 Climbing Cleveland Center
08:29AM 40.0597 -79.2783 300° West 393 452 28,200 480 Climbing Cleveland Center
08:30AM 40.1214 -79.4019 303° West 398 458 28,800 540 Climbing Cleveland Center
08:31AM 40.1811 -79.5286 302° West 398 458 29,300 480 Climbing Cleveland Center
08:32AM 40.2428 -79.6583 302° West 403 464 29,800 300 Climbing Cleveland Center
08:33AM 40.3019 -79.7883 301° West 408 470 30,000 60 Climbing Cleveland Center
08:34AM 40.3633 -79.9183 302° West 418 481 30,000  Level Cleveland Center
08:35AM 40.4225 -80.0567 299° West 426 490 30,000  Level Cleveland Center
08:36AM 40.4814 -80.1872 301° West 426 490 30,000  Level Cleveland Center
08:37AM 40.5422 -80.3153 302° West 421 484 30,000  Level Cleveland Center
08:38AM 40.5986 -80.4408 301° West 409 471 30,000  Level Cleveland Center
08:39AM 40.6572 -80.5694 301° West 404 465 30,000  Level Cleveland Center
08:40AM 40.7217 -80.7036 302° West 394 453 30,000  Level Cleveland Center
08:41AM 40.7839 -80.8272 304° West 400 460 30,000  Level Cleveland Center
08:42AM 40.8442 -80.9481 303° West 400 460 30,000  Level Cleveland Center
08:43AM 40.9042 -81.0747 302° West 400 460 30,000  Level Cleveland Center
08:44AM 40.9639 -81.1964 303° West 400 460 30,000  Level Cleveland Center
08:45AM 41.0236 -81.3181 303° West 400 460 30,000  Level Cleveland Center
08:46AM 41.0833 -81.4397 303° West 400 460 30,000  Level Cleveland Center
08:47AM 41.1469 -81.5564 306° West 393 452 30,000  Level Cleveland Center
08:48AM 41.2022 -81.6814 300° West 399 459 30,000  Level Cleveland Center
08:49AM 41.2614 -81.8014 303° West 394 453 30,000  Level Cleveland Center
08:50AM 41.3225 -81.9214 304° West 394 453 30,000  Level Cleveland Center
08:51AM 41.3772 -82.0442 301° West 394 453 30,000 -1,320 Level Cleveland Center
08:52AM 41.4322 -82.1589 303° West 394 453 27,400 -3,000 Descending Cleveland Center
08:53AM 41.4908 -82.2825 302° West 400 460 24,100 -3,300 Descending Cleveland Center
08:54AM 41.5533 -82.4172 302° West 395 455 20,900 -3,180 Descending Cleveland Center
08:55AM 41.6097 -82.5328 303° West 388 447 17,800 -3,000 Descending Cleveland Center
08:56AM 41.6419 -82.6031 302° West 360 414 16,000 -2,940 Descending Cleveland Center
08:57AM 41.7003 -82.7244 303° West 334 384 12,700 -1,920 Descending Cleveland Center
08:58AM 41.7589 -82.8183 310° West 320 368 12,000 -360 Descending Cleveland Center
08:59AM 41.8239 -82.8986 317° Northwest 325 374 12,000  Level Cleveland Center
09:00AM 41.8950 -82.9878 317° Northwest 331 381 12,000  Level Cleveland Center
09:01AM 41.9686 -83.0658 322° Northwest 334 384 12,000  Level Cleveland Center
09:02AM 42.0314 -83.1467 316° Northwest 277 319 12,000  Level Cleveland Center
09:03AM 42.0839 -83.2158 316° Northwest 264 304 12,000 -840 Level Cleveland Center
09:04AM 42.1589 -83.2275 353° North 304 350 10,400 -1,980 Descending Cleveland Center
09:05AM 42.2350 -83.1772 26° Northeast 309 356 8,000 -1,980 Descending Cleveland Center
09:06AM 42.3131 -83.1300 24° Northeast 287 330 6,300 -1,620 Descending Cleveland Center
09:07AM 42.3731 -83.1550 343° North 260 299 4,800 -1,260 Descending Cleveland Center
09:08AM 42.3483 -83.2381 248° West 238 274 3,900 -1,080 Descending Cleveland Center
09:09AM 42.2972 -83.2753 208° Southwest 183 211 2,700 -1,140 Descending Cleveland Center
09:10AM 42.2611 -83.3075 213° Southwest 130 150 1,700 -840 Descending Cleveland Center
09:11AM 42.2272 -83.3286 205° Southwest 132 152 1,000 -720 Descending Cleveland Center